Capitol Logistics 7451

Operating for MZN



KCVG
Cincinnati/Northern Kentucky International Airport
Covington, Kentucky
KPHX
Phoenix Sky Harbor International Airport
Phoenix, Arizona

Activity Log

Date Flight Route Aircraft Duration
No Flights Yet

Route Details

Aircraft Information
Primary: Boeing 767-300BDSF
Backup: Airbus A300-600F
Route Data
Distance: 1362nm
Duration: 3h 41m
Recm'd Route: LOVEY6 AXC SPI J80 TWAIN J80 MCI J24 SLN J96 GCK J96 GUP EAGUL6
Origin Wx: KCVG 020352Z 34008KT 10SM CLR 19/12 A3007 RMK AO2 SLP173 T01940122
Dest. Wx: KPHX 020351Z 17007KT 10SM FEW100 SCT250 37/16 A2990 RMK AO2 SLP101 T03720156
Notes: